createdAt,value
2022-07-30T00:01:17.644Z,99.90
2022-07-30T00:03:44.514Z,99.90
2022-07-30T00:06:11.360Z,99.90
2022-07-30T00:08:38.159Z,99.90
2022-07-30T00:11:04.931Z,99.90
2022-07-30T00:13:31.678Z,99.90
2022-07-30T00:15:58.464Z,99.90
2022-07-30T00:18:27.315Z,99.90
2022-07-30T00:20:54.168Z,99.90
2022-07-30T00:23:23.279Z,99.90
2022-07-30T00:25:50.038Z,99.90
2022-07-30T00:28:17.063Z,99.90
2022-07-30T00:30:43.967Z,99.90
2022-07-30T00:33:10.873Z,99.90
2022-07-30T00:35:38.997Z,99.90
2022-07-30T00:38:05.767Z,99.90
2022-07-30T00:40:32.563Z,99.90
2022-07-30T00:42:59.198Z,99.90
2022-07-30T00:45:27.589Z,99.90
2022-07-30T00:47:54.680Z,99.90
2022-07-30T00:50:21.823Z,99.90
2022-07-30T00:52:49.091Z,99.90
2022-07-30T00:55:16.216Z,99.90
2022-07-30T00:57:43.463Z,99.90
2022-07-30T01:00:14.032Z,99.90
2022-07-30T01:02:42.018Z,99.90
2022-07-30T01:05:09.677Z,99.90
2022-07-30T01:07:36.568Z,99.90
2022-07-30T01:10:04.685Z,99.90
2022-07-30T01:12:31.887Z,99.90
2022-07-30T01:14:59.516Z,99.90
2022-07-30T01:17:26.534Z,99.90
2022-07-30T01:19:59.951Z,99.90
2022-07-30T01:22:30.654Z,99.90
2022-07-30T01:25:03.855Z,99.90
2022-07-30T01:27:35.312Z,99.90
2022-07-30T01:30:04.743Z,99.90
2022-07-30T01:32:34.319Z,99.90
2022-07-30T01:35:03.344Z,99.90
2022-07-30T01:37:31.932Z,99.90
2022-07-30T01:39:59.768Z,99.90
2022-07-30T01:42:29.886Z,99.90
2022-07-30T01:44:58.471Z,99.90
2022-07-30T01:47:27.867Z,99.90
2022-07-30T01:49:56.570Z,99.90
2022-07-30T01:52:24.646Z,99.90
2022-07-30T01:54:54.807Z,99.90
2022-07-30T01:57:23.222Z,99.90
2022-07-30T01:59:54.820Z,99.90
2022-07-30T02:02:21.714Z,99.90
2022-07-30T02:04:49.586Z,99.90
2022-07-30T02:07:49.471Z,99.90
2022-07-30T02:10:23.995Z,99.90
2022-07-30T02:12:55.610Z,99.90
2022-07-30T02:15:49.495Z,99.90
2022-07-30T02:18:30.945Z,99.90
2022-07-30T02:21:02.567Z,99.90
2022-07-30T02:23:44.021Z,99.90
2022-07-30T02:26:18.469Z,99.90
2022-07-30T02:28:49.585Z,99.90
2022-07-30T02:31:22.440Z,99.90
2022-07-30T02:33:53.554Z,99.90
2022-07-30T02:36:21.134Z,99.90
2022-07-30T02:38:50.734Z,99.90
2022-07-30T02:41:24.971Z,99.90
2022-07-30T02:43:53.194Z,99.90
2022-07-30T02:46:25.063Z,99.90
2022-07-30T02:49:12.352Z,99.90
2022-07-30T02:51:42.140Z,99.90
2022-07-30T02:54:12.605Z,99.90
2022-07-30T02:56:41.440Z,99.90
2022-07-30T02:59:10.181Z,99.90
2022-07-30T03:01:37.990Z,99.90
2022-07-30T03:04:06.311Z,99.90
2022-07-30T03:06:35.439Z,99.90
2022-07-30T03:09:05.417Z,99.90
2022-07-30T03:11:34.349Z,99.90
2022-07-30T03:14:01.498Z,99.90
2022-07-30T03:16:30.785Z,99.90
2022-07-30T03:19:02.384Z,99.90
2022-07-30T03:21:35.671Z,99.90
2022-07-30T03:24:03.387Z,99.90
2022-07-30T03:26:31.458Z,99.90
2022-07-30T03:28:59.972Z,99.90
2022-07-30T03:31:28.418Z,99.90
2022-07-30T03:34:03.725Z,99.90
2022-07-30T03:36:34.934Z,99.90
2022-07-30T03:39:05.480Z,99.90
2022-07-30T03:41:33.506Z,99.90
2022-07-30T03:44:01.993Z,99.90
2022-07-30T03:46:31.562Z,99.90
2022-07-30T03:49:00.445Z,99.90
2022-07-30T03:51:32.843Z,99.90
2022-07-30T03:54:00.741Z,99.90
2022-07-30T03:56:40.353Z,99.90
2022-07-30T03:59:33.508Z,99.90
2022-07-30T04:02:07.481Z,99.90
2022-07-30T04:05:00.907Z,99.90
2022-07-30T04:07:27.739Z,99.90
2022-07-30T04:09:54.621Z,99.90
2022-07-30T04:12:35.491Z,99.90
2022-07-30T04:15:03.371Z,99.90
2022-07-30T04:17:54.040Z,99.90
2022-07-30T04:20:34.502Z,99.90
2022-07-30T04:23:02.632Z,99.90
2022-07-30T04:25:33.080Z,99.90
2022-07-30T04:28:03.524Z,99.90
2022-07-30T04:30:35.941Z,99.90
2022-07-30T04:33:05.800Z,99.90
2022-07-30T04:36:08.162Z,99.90
2022-07-30T04:38:37.633Z,99.90
2022-07-30T04:41:04.981Z,99.90
2022-07-30T04:43:51.357Z,99.90
2022-07-30T04:46:18.950Z,99.90
2022-07-30T04:48:48.083Z,99.90
2022-07-30T04:51:25.566Z,99.90
2022-07-30T04:53:54.656Z,99.90
2022-07-30T04:56:23.095Z,99.90
2022-07-30T04:58:51.873Z,99.90
2022-07-30T05:01:23.931Z,99.90
2022-07-30T05:04:06.751Z,99.90
2022-07-30T05:06:34.868Z,99.90
2022-07-30T05:09:02.244Z,99.90
2022-07-30T05:11:29.228Z,99.90
2022-07-30T05:13:56.198Z,99.90
2022-07-30T05:16:22.994Z,99.90
2022-07-30T05:18:50.928Z,99.90
2022-07-30T05:21:18.473Z,99.90
2022-07-30T05:23:50.556Z,99.90
2022-07-30T05:26:36.291Z,99.90
2022-07-30T05:29:04.097Z,99.90
2022-07-30T05:31:47.326Z,99.90
2022-07-30T05:34:16.097Z,99.90
2022-07-30T05:36:45.405Z,99.90
2022-07-30T05:39:16.427Z,99.90
2022-07-30T05:41:53.002Z,99.90
2022-07-30T05:44:24.311Z,99.90
2022-07-30T05:46:52.155Z,99.90
2022-07-30T05:49:19.473Z,99.90
2022-07-30T05:51:46.673Z,99.90
2022-07-30T05:54:13.839Z,99.90
2022-07-30T05:57:19.125Z,99.90
2022-07-30T05:59:47.489Z,99.90
2022-07-30T06:02:33.022Z,99.90
2022-07-30T06:05:18.516Z,99.90
2022-07-30T06:07:45.784Z,99.90
2022-07-30T06:10:13.158Z,99.90
2022-07-30T06:12:41.780Z,99.90
2022-07-30T06:15:10.771Z,99.90
2022-07-30T06:17:51.003Z,99.90
2022-07-30T06:20:38.683Z,99.90
2022-07-30T06:23:28.659Z,99.90
2022-07-30T06:26:14.418Z,99.90
2022-07-30T06:28:41.481Z,99.90
2022-07-30T06:31:19.367Z,99.90
2022-07-30T06:33:46.505Z,99.90
2022-07-30T06:36:14.516Z,99.90
2022-07-30T06:39:07.521Z,99.90
2022-07-30T06:41:54.670Z,99.90
2022-07-30T06:44:21.675Z,99.90
2022-07-30T06:47:28.846Z,99.90
2022-07-30T06:49:57.128Z,99.90
2022-07-30T06:52:25.387Z,99.90
2022-07-30T06:54:53.587Z,99.90
2022-07-30T06:57:49.670Z,99.90
2022-07-30T07:00:48.402Z,99.90
2022-07-30T07:03:15.153Z,99.90
2022-07-30T07:05:42.053Z,99.90
2022-07-30T07:08:08.973Z,99.90
2022-07-30T07:10:39.809Z,99.90
2022-07-30T07:13:35.943Z,99.90
2022-07-30T07:16:06.927Z,99.90
2022-07-30T07:18:35.908Z,99.90
2022-07-30T07:21:06.300Z,99.90
2022-07-30T07:23:39.857Z,99.90
2022-07-30T07:26:15.790Z,99.90
2022-07-30T07:28:42.911Z,99.90
2022-07-30T07:31:10.386Z,99.90
2022-07-30T07:33:39.363Z,99.90
2022-07-30T07:36:07.245Z,99.90
2022-07-30T07:38:35.033Z,99.90
2022-07-30T07:41:02.232Z,99.90
2022-07-30T07:43:29.904Z,99.90
2022-07-30T07:45:59.346Z,99.90
2022-07-30T07:48:30.128Z,99.90
2022-07-30T07:51:47.970Z,99.90
2022-07-30T07:54:21.463Z,99.90
2022-07-30T07:56:51.508Z,99.90
2022-07-30T07:59:21.882Z,99.90
2022-07-30T08:01:50.994Z,99.90
2022-07-30T08:04:41.441Z,99.90
2022-07-30T08:07:11.010Z,99.90
2022-07-30T08:09:56.901Z,99.90
2022-07-30T08:12:46.560Z,99.90
2022-07-30T08:15:22.483Z,99.90
2022-07-30T08:18:08.091Z,99.90
2022-07-30T08:20:41.147Z,99.90
2022-07-30T08:23:08.349Z,99.90
2022-07-30T08:25:35.076Z,99.90
2022-07-30T08:28:03.288Z,99.90
2022-07-30T08:30:31.430Z,99.90
2022-07-30T08:32:58.331Z,99.90
2022-07-30T08:35:25.588Z,99.90
2022-07-30T08:37:52.792Z,99.90
2022-07-30T08:40:26.030Z,99.90
2022-07-30T08:43:05.310Z,99.90
2022-07-30T08:45:35.064Z,99.90
2022-07-30T08:48:16.819Z,99.90
2022-07-30T08:50:46.166Z,98.00
2022-07-30T08:53:35.741Z,94.70
2022-07-30T08:56:04.717Z,93.50
2022-07-30T08:58:36.805Z,93.20
2022-07-30T09:01:05.627Z,92.20
2022-07-30T09:03:32.793Z,91.10
2022-07-30T09:06:02.565Z,90.40
2022-07-30T09:08:29.426Z,90.00
2022-07-30T09:10:56.338Z,89.50
2022-07-30T09:13:37.699Z,88.60
2022-07-30T09:16:06.196Z,87.80
2022-07-30T09:18:39.667Z,87.50
2022-07-30T09:21:23.350Z,89.70
2022-07-30T09:24:04.687Z,88.90
2022-07-30T09:27:01.275Z,89.40
2022-07-30T09:29:59.508Z,90.00
2022-07-30T09:33:01.749Z,88.10
2022-07-30T09:35:56.171Z,87.10
2022-07-30T09:38:53.082Z,83.20
2022-07-30T09:41:48.921Z,82.80
2022-07-30T09:44:27.660Z,82.10
2022-07-30T09:46:57.661Z,83.20
2022-07-30T09:49:33.342Z,84.40
2022-07-30T09:52:00.690Z,85.10
2022-07-30T09:54:51.530Z,83.80
2022-07-30T09:57:25.641Z,83.20
2022-07-30T09:59:56.744Z,83.90
2022-07-30T10:02:31.960Z,83.90
2022-07-30T10:05:14.915Z,82.30
2022-07-30T10:08:02.580Z,82.20
2022-07-30T10:10:31.532Z,80.60
2022-07-30T10:13:04.819Z,77.30
2022-07-30T10:15:34.919Z,78.50
2022-07-30T10:18:06.130Z,79.40
2022-07-30T10:21:01.269Z,80.10
2022-07-30T10:24:08.947Z,79.50
2022-07-30T10:26:54.698Z,79.10
2022-07-30T10:29:34.271Z,77.50
2022-07-30T10:32:02.007Z,76.60
2022-07-30T10:34:34.035Z,76.40
2022-07-30T10:37:06.754Z,75.00
2022-07-30T10:39:56.762Z,71.00
2022-07-30T10:42:50.830Z,70.80
2022-07-30T10:45:46.304Z,68.30
2022-07-30T10:48:14.163Z,68.80
2022-07-30T10:50:54.135Z,68.70
2022-07-30T10:53:41.878Z,66.80
2022-07-30T10:56:25.410Z,65.30
2022-07-30T10:59:00.397Z,64.30
2022-07-30T11:01:51.803Z,65.30
2022-07-30T11:04:29.450Z,66.40
2022-07-30T11:07:25.205Z,65.40
2022-07-30T11:10:09.917Z,64.00
2022-07-30T11:12:44.714Z,61.70
2022-07-30T11:15:18.563Z,62.10
2022-07-30T11:18:12.399Z,63.10
2022-07-30T11:20:40.795Z,63.40
2022-07-30T11:23:28.563Z,61.40
2022-07-30T11:25:55.585Z,60.40
2022-07-30T11:28:49.274Z,59.70
2022-07-30T11:31:56.474Z,58.60
2022-07-30T11:34:33.179Z,59.10
2022-07-30T11:37:18.231Z,57.60
2022-07-30T11:39:55.231Z,56.90
2022-07-30T11:42:30.405Z,55.50
2022-07-30T11:45:15.793Z,54.20
2022-07-30T11:47:48.008Z,53.30
2022-07-30T11:50:26.671Z,53.20
2022-07-30T11:52:58.206Z,52.30
2022-07-30T11:55:42.562Z,52.20
2022-07-30T11:58:30.249Z,53.30
2022-07-30T12:01:01.661Z,53.90
2022-07-30T12:03:31.816Z,51.90
2022-07-30T12:06:06.595Z,52.10
2022-07-30T12:08:41.329Z,51.90
2022-07-30T12:11:08.255Z,49.80
2022-07-30T12:13:45.265Z,49.10
2022-07-30T12:16:18.560Z,48.90
2022-07-30T12:18:47.572Z,48.60
2022-07-30T12:21:18.723Z,48.50
2022-07-30T12:24:09.861Z,47.50
2022-07-30T12:26:37.526Z,47.80
2022-07-30T12:29:07.272Z,47.70
2022-07-30T12:31:34.384Z,48.60
2022-07-30T12:34:20.754Z,48.20
2022-07-30T12:36:47.603Z,48.60
2022-07-30T12:39:23.853Z,47.90
2022-07-30T12:41:52.408Z,48.60
2022-07-30T12:44:35.235Z,49.00
2022-07-30T12:47:03.061Z,47.90
2022-07-30T12:49:39.467Z,48.20
2022-07-30T12:52:28.337Z,49.20
2022-07-30T12:55:02.743Z,49.70
2022-07-30T12:58:07.949Z,50.00
2022-07-30T13:00:52.756Z,48.90
2022-07-30T13:03:27.517Z,48.80
2022-07-30T13:05:56.206Z,48.10
2022-07-30T13:08:47.935Z,47.80
2022-07-30T13:11:15.913Z,47.00
2022-07-30T13:13:42.751Z,47.40
2022-07-30T13:16:10.292Z,47.90
2022-07-30T13:18:37.882Z,46.70
2022-07-30T13:21:07.644Z,47.20
2022-07-30T13:23:35.210Z,46.90
2022-07-30T13:26:02.223Z,47.20
2022-07-30T13:28:29.534Z,46.90
2022-07-30T13:30:57.216Z,46.60
2022-07-30T13:33:40.617Z,46.90
2022-07-30T13:36:10.064Z,45.70
2022-07-30T13:38:36.859Z,46.00
2022-07-30T13:41:07.536Z,45.00
2022-07-30T13:43:36.616Z,45.50
2022-07-30T13:46:04.842Z,45.30
2022-07-30T13:48:32.648Z,44.80
2022-07-30T13:51:03.748Z,45.90
2022-07-30T13:53:31.046Z,47.60
2022-07-30T13:56:01.570Z,47.50
2022-07-30T13:58:30.030Z,46.80
2022-07-30T14:01:01.197Z,46.80
2022-07-30T14:03:28.006Z,45.80
2022-07-30T14:05:55.949Z,45.90
2022-07-30T14:08:36.973Z,46.30
2022-07-30T14:11:04.002Z,46.20
2022-07-30T14:13:31.048Z,47.90
2022-07-30T14:16:01.256Z,45.90
2022-07-30T14:18:28.085Z,46.80
2022-07-30T14:20:54.966Z,47.80
2022-07-30T14:23:22.013Z,48.40
2022-07-30T14:25:48.982Z,47.90
2022-07-30T14:28:16.302Z,47.00
2022-07-30T14:30:44.925Z,46.20
2022-07-30T14:33:11.898Z,45.90
2022-07-30T14:35:38.881Z,44.80
2022-07-30T14:38:05.935Z,44.70
2022-07-30T14:40:32.990Z,44.50
2022-07-30T14:42:59.820Z,44.70
2022-07-30T14:45:26.979Z,44.00
2022-07-30T14:47:56.292Z,43.60
2022-07-30T14:50:23.217Z,43.40
2022-07-30T14:52:51.965Z,43.80
2022-07-30T14:55:18.962Z,42.90
2022-07-30T14:57:45.791Z,43.30
2022-07-30T15:00:12.990Z,42.60
2022-07-30T15:02:40.830Z,42.50
2022-07-30T15:05:08.452Z,43.10
2022-07-30T15:07:35.728Z,42.70
2022-07-30T15:10:02.772Z,42.30
2022-07-30T15:12:29.604Z,42.20
2022-07-30T15:14:56.497Z,41.80
2022-07-30T15:17:24.515Z,41.80
2022-07-30T15:19:51.664Z,42.60
2022-07-30T15:22:19.563Z,42.80
2022-07-30T15:24:46.672Z,42.70
2022-07-30T15:27:13.530Z,42.80
2022-07-30T15:29:40.295Z,43.50
2022-07-30T15:32:07.488Z,43.90
2022-07-30T15:34:34.692Z,44.10
2022-07-30T15:37:03.089Z,44.50
2022-07-30T15:39:32.262Z,45.50
2022-07-30T15:42:01.097Z,46.20
2022-07-30T15:44:28.309Z,44.70
2022-07-30T15:46:55.096Z,44.00
2022-07-30T15:49:22.229Z,43.70
2022-07-30T15:51:49.263Z,43.50
2022-07-30T15:54:20.991Z,43.60
2022-07-30T15:56:53.983Z,44.20
2022-07-30T15:59:21.988Z,43.40
2022-07-30T16:01:49.180Z,43.00
2022-07-30T16:04:18.937Z,42.50
2022-07-30T16:06:48.021Z,41.30
2022-07-30T16:09:16.168Z,41.50
2022-07-30T16:11:43.066Z,41.50
2022-07-30T16:14:10.369Z,41.80
2022-07-30T16:16:37.563Z,41.80
2022-07-30T16:19:04.463Z,42.10
2022-07-30T16:21:31.239Z,41.70
2022-07-30T16:23:58.090Z,42.10
2022-07-30T16:26:24.828Z,42.60
2022-07-30T16:28:51.661Z,42.20
2022-07-30T16:31:18.512Z,43.40
2022-07-30T16:33:45.296Z,42.90
2022-07-30T16:36:12.202Z,43.30
2022-07-30T16:38:38.968Z,43.90
2022-07-30T16:41:07.000Z,44.00
2022-07-30T16:43:36.675Z,44.20
2022-07-30T16:46:03.571Z,44.50
2022-07-30T16:48:32.628Z,44.40
2022-07-30T16:51:00.113Z,43.80
2022-07-30T16:53:26.907Z,44.30
2022-07-30T16:55:53.683Z,44.10
2022-07-30T16:58:21.349Z,44.60
2022-07-30T17:00:55.297Z,45.10
2022-07-30T17:03:22.167Z,46.30
2022-07-30T17:05:48.886Z,46.60
2022-07-30T17:08:15.601Z,47.10
2022-07-30T17:10:45.939Z,47.50
2022-07-30T17:13:14.706Z,48.30
2022-07-30T17:15:41.681Z,48.40
2022-07-30T17:18:08.525Z,49.20
2022-07-30T17:20:35.452Z,49.70
2022-07-30T17:23:02.246Z,50.20
2022-07-30T17:25:29.432Z,50.70
2022-07-30T17:27:57.654Z,51.00
2022-07-30T17:30:25.036Z,51.80
2022-07-30T17:32:51.939Z,52.10
2022-07-30T17:35:19.440Z,52.80
2022-07-30T17:37:46.297Z,53.40
2022-07-30T17:40:28.583Z,53.30
2022-07-30T17:43:03.239Z,53.50
2022-07-30T17:45:31.093Z,53.60
2022-07-30T17:47:58.056Z,53.30
2022-07-30T17:50:25.016Z,53.40
2022-07-30T17:52:51.805Z,53.60
2022-07-30T17:55:18.604Z,53.50
2022-07-30T17:57:45.405Z,53.60
2022-07-30T18:00:13.103Z,53.50
2022-07-30T18:02:39.879Z,53.60
2022-07-30T18:05:06.941Z,53.60
2022-07-30T18:07:33.711Z,53.70
2022-07-30T18:10:00.505Z,53.80
2022-07-30T18:12:27.352Z,54.00
2022-07-30T18:14:55.180Z,54.30
2022-07-30T18:17:21.938Z,54.50
2022-07-30T18:19:48.792Z,54.90
2022-07-30T18:22:15.938Z,55.10
2022-07-30T18:24:53.194Z,55.10
2022-07-30T18:27:20.018Z,55.60
2022-07-30T18:29:46.890Z,56.10
2022-07-30T18:32:13.631Z,56.20
2022-07-30T18:34:40.441Z,56.20
2022-07-30T18:37:07.200Z,56.60
2022-07-30T18:39:33.964Z,56.80
2022-07-30T18:42:02.114Z,57.70
2022-07-30T18:44:29.354Z,57.40
2022-07-30T18:46:56.229Z,57.80
2022-07-30T18:49:36.217Z,58.00
2022-07-30T18:52:04.286Z,58.30
2022-07-30T18:54:31.626Z,58.70
2022-07-30T18:56:58.393Z,58.90
2022-07-30T18:59:25.249Z,59.10
2022-07-30T19:01:52.287Z,59.40
2022-07-30T19:04:19.024Z,59.40
2022-07-30T19:06:45.839Z,59.80
2022-07-30T19:09:17.230Z,60.30
2022-07-30T19:11:44.716Z,60.40
2022-07-30T19:14:13.064Z,60.80
2022-07-30T19:16:40.371Z,60.80
2022-07-30T19:19:07.534Z,61.30
2022-07-30T19:21:34.350Z,61.40
2022-07-30T19:24:01.739Z,61.70
2022-07-30T19:26:28.628Z,62.00
2022-07-30T19:28:55.383Z,62.40
2022-07-30T19:31:22.317Z,62.80
2022-07-30T19:33:49.489Z,63.50
2022-07-30T19:36:20.569Z,63.30
2022-07-30T19:38:48.771Z,63.60
2022-07-30T19:41:16.451Z,63.90
2022-07-30T19:43:43.702Z,64.80
2022-07-30T19:46:25.130Z,65.20
2022-07-30T19:48:52.067Z,64.60
2022-07-30T19:51:21.030Z,64.90
2022-07-30T19:53:52.029Z,65.20
2022-07-30T19:56:19.577Z,65.40
2022-07-30T19:58:46.475Z,65.70
2022-07-30T20:01:15.734Z,65.90
2022-07-30T20:03:46.000Z,66.00
2022-07-30T20:06:15.996Z,66.10
2022-07-30T20:08:44.739Z,66.60
2022-07-30T20:11:14.096Z,66.60
2022-07-30T20:13:48.176Z,66.60
2022-07-30T20:19:04.642Z,67.70
2022-07-30T20:21:57.067Z,68.10
2022-07-30T20:24:20.306Z,69.00
2022-07-30T20:26:48.044Z,68.80
2022-07-30T20:29:18.748Z,69.90
2022-07-30T20:31:46.717Z,72.50
2022-07-30T20:34:27.577Z,74.00
2022-07-30T20:36:56.485Z,73.90
2022-07-30T20:39:25.074Z,74.10
2022-07-30T20:42:07.561Z,74.50
2022-07-30T20:44:40.108Z,74.80
2022-07-30T20:47:11.690Z,75.40
2022-07-30T20:49:40.447Z,75.50
2022-07-30T20:52:09.725Z,76.20
2022-07-30T20:54:37.439Z,77.50
2022-07-30T20:57:15.524Z,78.00
2022-07-30T20:59:43.998Z,78.00
2022-07-30T21:02:15.363Z,78.20
2022-07-30T21:04:42.120Z,78.70
2022-07-30T21:07:13.322Z,79.00
2022-07-30T21:09:49.678Z,78.90
2022-07-30T21:12:19.299Z,79.60
2022-07-30T21:14:59.904Z,79.80
2022-07-30T21:17:26.826Z,79.80
2022-07-30T21:19:55.232Z,79.80
2022-07-30T21:22:22.493Z,80.30
2022-07-30T21:24:50.781Z,80.90
2022-07-30T21:27:17.802Z,81.30
2022-07-30T21:29:45.873Z,81.30
2022-07-30T21:32:13.040Z,81.70
2022-07-30T21:34:42.278Z,82.10
2022-07-30T21:37:09.784Z,83.00
2022-07-30T21:39:39.958Z,84.40
2022-07-30T21:42:08.749Z,86.50
2022-07-30T21:44:36.517Z,88.00
2022-07-30T21:47:05.376Z,87.30
2022-07-30T21:49:37.032Z,87.90
2022-07-30T21:52:04.994Z,87.50
2022-07-30T21:54:37.517Z,88.70
2022-07-30T21:57:15.146Z,90.50
2022-07-30T21:59:50.189Z,91.50
2022-07-30T22:02:18.958Z,92.00
2022-07-30T22:04:47.538Z,92.90
2022-07-30T22:07:17.335Z,93.50
2022-07-30T22:09:44.167Z,93.60
2022-07-30T22:12:18.103Z,93.90
2022-07-30T22:14:49.334Z,93.70
2022-07-30T22:17:23.735Z,94.30
2022-07-30T22:20:04.777Z,94.70
2022-07-30T22:22:37.618Z,95.30
2022-07-30T22:25:06.878Z,96.10
2022-07-30T22:27:55.997Z,96.30
2022-07-30T22:30:26.649Z,97.50
2022-07-30T22:32:54.864Z,98.70
2022-07-30T22:35:32.053Z,99.90
2022-07-30T22:38:01.500Z,99.90
2022-07-30T22:40:28.256Z,99.90
2022-07-30T22:42:55.548Z,99.90
2022-07-30T22:45:46.531Z,99.90
2022-07-30T22:48:10.257Z,99.90
2022-07-30T22:50:39.776Z,99.90
2022-07-30T22:53:23.750Z,99.90
2022-07-30T22:55:54.824Z,99.90
2022-07-30T22:58:21.876Z,99.90
2022-07-30T23:00:48.900Z,99.90
2022-07-30T23:03:16.879Z,99.90
2022-07-30T23:05:56.361Z,99.90
2022-07-30T23:08:30.150Z,99.90
2022-07-30T23:10:59.286Z,99.90
2022-07-30T23:12:16.652Z,67.10
2022-07-30T23:13:27.114Z,99.90
2022-07-30T23:15:54.001Z,99.90
2022-07-30T23:18:21.005Z,99.90
2022-07-30T23:20:47.772Z,99.90
2022-07-30T23:23:14.993Z,99.90
2022-07-30T23:25:41.738Z,99.90
2022-07-30T23:28:08.546Z,99.90
2022-07-30T23:30:35.394Z,99.90
2022-07-30T23:33:02.188Z,99.90
2022-07-30T23:35:28.961Z,99.90
2022-07-30T23:37:55.698Z,99.90
2022-07-30T23:40:22.514Z,99.90
2022-07-30T23:42:50.826Z,99.90
2022-07-30T23:45:18.532Z,99.90
2022-07-30T23:48:00.719Z,99.90
2022-07-30T23:50:32.990Z,99.90
2022-07-30T23:53:04.023Z,99.90
2022-07-30T23:55:31.902Z,99.90
2022-07-30T23:57:59.929Z,99.90
